sensor_id;sensor_type;location;lat;lon;timestamp;P1;durP1;ratioP1;P2;durP2;ratioP2
36669;SDS011;22662;47.412;9.742;2022-08-19T00:00:29;3.25;;;2.00;;
36669;SDS011;22662;47.412;9.742;2022-08-19T00:02:55;2.90;;;2.70;;
36669;SDS011;22662;47.412;9.742;2022-08-19T00:05:21;3.60;;;3.30;;
36669;SDS011;22662;47.412;9.742;2022-08-19T00:07:47;3.83;;;3.53;;
36669;SDS011;22662;47.412;9.742;2022-08-19T00:10:14;4.10;;;3.80;;
36669;SDS011;22662;47.412;9.742;2022-08-19T00:12:42;4.88;;;4.47;;
36669;SDS011;22662;47.412;9.742;2022-08-19T00:15:09;5.50;;;5.00;;
36669;SDS011;22662;47.412;9.742;2022-08-19T00:17:43;3.60;;;3.30;;
36669;SDS011;22662;47.412;9.742;2022-08-19T00:20:11;4.32;;;3.20;;
36669;SDS011;22662;47.412;9.742;2022-08-19T00:22:41;2.13;;;2.00;;
36669;SDS011;22662;47.412;9.742;2022-08-19T00:25:07;2.22;;;2.10;;
36669;SDS011;22662;47.412;9.742;2022-08-19T00:27:33;4.40;;;1.98;;
36669;SDS011;22662;47.412;9.742;2022-08-19T00:29:59;2.13;;;1.90;;
36669;SDS011;22662;47.412;9.742;2022-08-19T00:32:29;2.80;;;2.10;;
36669;SDS011;22662;47.412;9.742;2022-08-19T00:34:55;1.80;;;1.70;;
36669;SDS011;22662;47.412;9.742;2022-08-19T00:37:21;4.82;;;3.03;;
36669;SDS011;22662;47.412;9.742;2022-08-19T00:39:49;4.50;;;4.10;;
36669;SDS011;22662;47.412;9.742;2022-08-19T00:42:16;8.65;;;5.53;;
36669;SDS011;22662;47.412;9.742;2022-08-19T00:44:43;9.50;;;8.60;;
36669;SDS011;22662;47.412;9.742;2022-08-19T00:47:09;12.32;;;9.98;;
36669;SDS011;22662;47.412;9.742;2022-08-19T00:49:38;9.43;;;8.48;;
36669;SDS011;22662;47.412;9.742;2022-08-19T00:52:15;3.45;;;3.15;;
36669;SDS011;22662;47.412;9.742;2022-08-19T00:54:47;3.78;;;3.40;;
36669;SDS011;22662;47.412;9.742;2022-08-19T00:57:15;3.92;;;3.63;;
36669;SDS011;22662;47.412;9.742;2022-08-19T00:59:44;7.35;;;6.65;;
36669;SDS011;22662;47.412;9.742;2022-08-19T01:02:12;22.10;;;19.63;;
36669;SDS011;22662;47.412;9.742;2022-08-19T01:04:39;19.10;;;17.20;;
36669;SDS011;22662;47.412;9.742;2022-08-19T01:07:05;19.00;;;17.08;;
36669;SDS011;22662;47.412;9.742;2022-08-19T01:09:32;34.40;;;30.63;;
36669;SDS011;22662;47.412;9.742;2022-08-19T01:11:58;31.27;;;27.92;;
36669;SDS011;22662;47.412;9.742;2022-08-19T01:14:23;35.28;;;31.17;;
36669;SDS011;22662;47.412;9.742;2022-08-19T01:16:50;42.88;;;35.28;;
36669;SDS011;22662;47.412;9.742;2022-08-19T01:21:52;32.28;;;28.65;;
36669;SDS011;22662;47.412;9.742;2022-08-19T01:24:23;32.35;;;29.05;;
36669;SDS011;22662;47.412;9.742;2022-08-19T01:26:49;33.15;;;29.55;;
36669;SDS011;22662;47.412;9.742;2022-08-19T01:29:15;34.53;;;30.85;;
36669;SDS011;22662;47.412;9.742;2022-08-19T01:31:41;26.30;;;23.48;;
36669;SDS011;22662;47.412;9.742;2022-08-19T01:34:07;11.95;;;10.75;;
36669;SDS011;22662;47.412;9.742;2022-08-19T01:39:11;15.65;;;14.05;;
36669;SDS011;22662;47.412;9.742;2022-08-19T01:41:48;16.45;;;14.77;;
36669;SDS011;22662;47.412;9.742;2022-08-19T01:44:15;17.42;;;15.70;;
36669;SDS011;22662;47.412;9.742;2022-08-19T01:46:41;17.80;;;16.02;;
36669;SDS011;22662;47.412;9.742;2022-08-19T01:49:08;14.18;;;12.85;;
36669;SDS011;22662;47.412;9.742;2022-08-19T01:51:35;14.95;;;13.55;;
36669;SDS011;22662;47.412;9.742;2022-08-19T01:54:02;16.98;;;15.20;;
36669;SDS011;22662;47.412;9.742;2022-08-19T01:56:28;16.50;;;14.95;;
36669;SDS011;22662;47.412;9.742;2022-08-19T01:58:55;18.00;;;16.35;;
36669;SDS011;22662;47.412;9.742;2022-08-19T02:01:26;20.90;;;18.90;;
36669;SDS011;22662;47.412;9.742;2022-08-19T02:03:57;20.25;;;18.33;;
36669;SDS011;22662;47.412;9.742;2022-08-19T02:06:26;16.10;;;14.63;;
36669;SDS011;22662;47.412;9.742;2022-08-19T02:08:52;17.27;;;15.68;;
36669;SDS011;22662;47.412;9.742;2022-08-19T02:11:23;17.17;;;15.57;;
36669;SDS011;22662;47.412;9.742;2022-08-19T02:13:51;23.45;;;21.23;;
36669;SDS011;22662;47.412;9.742;2022-08-19T02:16:18;19.38;;;17.60;;
36669;SDS011;22662;47.412;9.742;2022-08-19T02:18:46;17.77;;;16.17;;
36669;SDS011;22662;47.412;9.742;2022-08-19T02:21:14;21.85;;;19.67;;
36669;SDS011;22662;47.412;9.742;2022-08-19T02:23:42;20.77;;;18.88;;
36669;SDS011;22662;47.412;9.742;2022-08-19T02:26:08;20.10;;;18.15;;
36669;SDS011;22662;47.412;9.742;2022-08-19T02:28:34;18.98;;;17.27;;
36669;SDS011;22662;47.412;9.742;2022-08-19T02:31:01;19.90;;;18.10;;
36669;SDS011;22662;47.412;9.742;2022-08-19T02:33:28;21.33;;;19.30;;
36669;SDS011;22662;47.412;9.742;2022-08-19T02:35:54;20.27;;;18.30;;
36669;SDS011;22662;47.412;9.742;2022-08-19T02:38:20;18.50;;;16.85;;
36669;SDS011;22662;47.412;9.742;2022-08-19T02:41:02;17.90;;;16.30;;
36669;SDS011;22662;47.412;9.742;2022-08-19T02:43:48;17.40;;;15.80;;
36669;SDS011;22662;47.412;9.742;2022-08-19T02:46:15;18.10;;;16.50;;
36669;SDS011;22662;47.412;9.742;2022-08-19T02:48:50;16.25;;;14.85;;
36669;SDS011;22662;47.412;9.742;2022-08-19T02:51:18;17.20;;;15.70;;
36669;SDS011;22662;47.412;9.742;2022-08-19T02:53:49;17.73;;;16.10;;
36669;SDS011;22662;47.412;9.742;2022-08-19T02:56:15;18.33;;;16.67;;
36669;SDS011;22662;47.412;9.742;2022-08-19T02:58:41;18.25;;;16.55;;
36669;SDS011;22662;47.412;9.742;2022-08-19T03:01:08;17.42;;;15.93;;
36669;SDS011;22662;47.412;9.742;2022-08-19T03:03:35;16.02;;;14.63;;
36669;SDS011;22662;47.412;9.742;2022-08-19T03:06:06;16.63;;;15.15;;
36669;SDS011;22662;47.412;9.742;2022-08-19T03:08:38;16.52;;;15.13;;
36669;SDS011;22662;47.412;9.742;2022-08-19T03:11:05;16.33;;;14.93;;
36669;SDS011;22662;47.412;9.742;2022-08-19T03:13:31;15.63;;;14.23;;
36669;SDS011;22662;47.412;9.742;2022-08-19T03:15:57;16.38;;;14.88;;
36669;SDS011;22662;47.412;9.742;2022-08-19T03:18:23;15.63;;;14.32;;
36669;SDS011;22662;47.412;9.742;2022-08-19T03:20:50;15.55;;;14.27;;
36669;SDS011;22662;47.412;9.742;2022-08-19T03:23:22;14.13;;;12.93;;
36669;SDS011;22662;47.412;9.742;2022-08-19T03:25:49;15.20;;;13.90;;
36669;SDS011;22662;47.412;9.742;2022-08-19T03:28:16;14.27;;;13.07;;
36669;SDS011;22662;47.412;9.742;2022-08-19T03:30:43;14.90;;;13.50;;
36669;SDS011;22662;47.412;9.742;2022-08-19T03:33:24;13.07;;;11.98;;
36669;SDS011;22662;47.412;9.742;2022-08-19T03:36:00;13.85;;;12.65;;
36669;SDS011;22662;47.412;9.742;2022-08-19T03:38:35;14.13;;;12.95;;
36669;SDS011;22662;47.412;9.742;2022-08-19T03:41:03;13.55;;;12.45;;
36669;SDS011;22662;47.412;9.742;2022-08-19T03:43:32;13.85;;;12.75;;
36669;SDS011;22662;47.412;9.742;2022-08-19T03:46:07;14.20;;;12.90;;
36669;SDS011;22662;47.412;9.742;2022-08-19T03:48:36;14.75;;;13.45;;
36669;SDS011;22662;47.412;9.742;2022-08-19T03:51:03;14.95;;;13.63;;
36669;SDS011;22662;47.412;9.742;2022-08-19T03:53:30;15.15;;;13.82;;
36669;SDS011;22662;47.412;9.742;2022-08-19T03:55:58;16.75;;;15.25;;
36669;SDS011;22662;47.412;9.742;2022-08-19T03:58:28;16.88;;;15.40;;
36669;SDS011;22662;47.412;9.742;2022-08-19T04:00:55;16.23;;;14.82;;
36669;SDS011;22662;47.412;9.742;2022-08-19T04:03:22;16.63;;;15.23;;
36669;SDS011;22662;47.412;9.742;2022-08-19T04:05:49;16.63;;;15.23;;
36669;SDS011;22662;47.412;9.742;2022-08-19T04:08:15;17.05;;;15.48;;
36669;SDS011;22662;47.412;9.742;2022-08-19T04:10:45;15.25;;;13.95;;
36669;SDS011;22662;47.412;9.742;2022-08-19T04:13:12;14.93;;;13.63;;
36669;SDS011;22662;47.412;9.742;2022-08-19T04:15:40;16.40;;;14.98;;
36669;SDS011;22662;47.412;9.742;2022-08-19T04:18:10;15.25;;;13.95;;
36669;SDS011;22662;47.412;9.742;2022-08-19T04:20:40;15.90;;;14.52;;
36669;SDS011;22662;47.412;9.742;2022-08-19T04:23:10;16.88;;;15.25;;
36669;SDS011;22662;47.412;9.742;2022-08-19T04:25:37;17.73;;;16.15;;
36669;SDS011;22662;47.412;9.742;2022-08-19T04:28:05;18.33;;;16.52;;
36669;SDS011;22662;47.412;9.742;2022-08-19T04:30:37;17.13;;;15.55;;
36669;SDS011;22662;47.412;9.742;2022-08-19T04:33:22;16.80;;;15.32;;
36669;SDS011;22662;47.412;9.742;2022-08-19T04:35:50;17.38;;;15.88;;
36669;SDS011;22662;47.412;9.742;2022-08-19T04:38:18;16.95;;;15.30;;
36669;SDS011;22662;47.412;9.742;2022-08-19T04:40:49;15.52;;;14.13;;
36669;SDS011;22662;47.412;9.742;2022-08-19T04:43:35;16.50;;;15.15;;
36669;SDS011;22662;47.412;9.742;2022-08-19T04:46:09;15.80;;;14.40;;
36669;SDS011;22662;47.412;9.742;2022-08-19T04:48:36;16.23;;;14.77;;
36669;SDS011;22662;47.412;9.742;2022-08-19T04:51:05;15.98;;;14.48;;
36669;SDS011;22662;47.412;9.742;2022-08-19T04:53:34;15.57;;;14.27;;
36669;SDS011;22662;47.412;9.742;2022-08-19T04:56:04;15.52;;;13.65;;
36669;SDS011;22662;47.412;9.742;2022-08-19T04:58:32;15.98;;;14.60;;
36669;SDS011;22662;47.412;9.742;2022-08-19T05:00:59;16.00;;;14.60;;
36669;SDS011;22662;47.412;9.742;2022-08-19T05:03:25;16.13;;;14.73;;
36669;SDS011;22662;47.412;9.742;2022-08-19T05:05:51;17.17;;;15.68;;
36669;SDS011;22662;47.412;9.742;2022-08-19T05:08:19;16.25;;;14.95;;
36669;SDS011;22662;47.412;9.742;2022-08-19T05:10:47;15.38;;;14.07;;
36669;SDS011;22662;47.412;9.742;2022-08-19T05:13:16;15.88;;;14.50;;
36669;SDS011;22662;47.412;9.742;2022-08-19T05:15:44;16.48;;;15.07;;
36669;SDS011;22662;47.412;9.742;2022-08-19T05:18:18;16.20;;;14.68;;
36669;SDS011;22662;47.412;9.742;2022-08-19T05:21:10;15.75;;;14.45;;
36669;SDS011;22662;47.412;9.742;2022-08-19T05:23:56;15.27;;;13.98;;
36669;SDS011;22662;47.412;9.742;2022-08-19T05:26:22;16.55;;;15.00;;
36669;SDS011;22662;47.412;9.742;2022-08-19T05:28:49;16.40;;;14.95;;
36669;SDS011;22662;47.412;9.742;2022-08-19T05:31:15;16.73;;;15.13;;
36669;SDS011;22662;47.412;9.742;2022-08-19T05:33:41;17.98;;;16.38;;
36669;SDS011;22662;47.412;9.742;2022-08-19T05:36:07;19.58;;;17.67;;
36669;SDS011;22662;47.412;9.742;2022-08-19T05:38:33;21.00;;;19.00;;
36669;SDS011;22662;47.412;9.742;2022-08-19T05:41:01;23.83;;;21.42;;
36669;SDS011;22662;47.412;9.742;2022-08-19T05:43:34;23.30;;;21.20;;
36669;SDS011;22662;47.412;9.742;2022-08-19T05:46:00;23.77;;;21.55;;
36669;SDS011;22662;47.412;9.742;2022-08-19T05:48:26;25.33;;;22.83;;
36669;SDS011;22662;47.412;9.742;2022-08-19T05:50:53;23.27;;;21.17;;
36669;SDS011;22662;47.412;9.742;2022-08-19T05:53:18;23.55;;;21.30;;
36669;SDS011;22662;47.412;9.742;2022-08-19T05:55:44;25.17;;;22.77;;
36669;SDS011;22662;47.412;9.742;2022-08-19T05:58:10;23.65;;;21.45;;
36669;SDS011;22662;47.412;9.742;2022-08-19T06:00:37;24.45;;;22.05;;
36669;SDS011;22662;47.412;9.742;2022-08-19T06:03:03;24.05;;;21.75;;
36669;SDS011;22662;47.412;9.742;2022-08-19T06:05:32;23.55;;;21.25;;
36669;SDS011;22662;47.412;9.742;2022-08-19T06:07:58;23.48;;;21.27;;
36669;SDS011;22662;47.412;9.742;2022-08-19T06:10:23;23.08;;;20.98;;
36669;SDS011;22662;47.412;9.742;2022-08-19T06:12:51;21.08;;;19.17;;
36669;SDS011;22662;47.412;9.742;2022-08-19T06:15:17;22.73;;;20.60;;
36669;SDS011;22662;47.412;9.742;2022-08-19T06:17:43;22.30;;;20.15;;
36669;SDS011;22662;47.412;9.742;2022-08-19T06:20:10;21.42;;;19.42;;
36669;SDS011;22662;47.412;9.742;2022-08-19T06:22:42;21.65;;;19.65;;
36669;SDS011;22662;47.412;9.742;2022-08-19T06:25:11;21.58;;;19.35;;
36669;SDS011;22662;47.412;9.742;2022-08-19T06:27:37;22.98;;;20.77;;
36669;SDS011;22662;47.412;9.742;2022-08-19T06:30:03;24.00;;;21.60;;
36669;SDS011;22662;47.412;9.742;2022-08-19T06:32:29;22.63;;;20.42;;
36669;SDS011;22662;47.412;9.742;2022-08-19T06:34:55;18.90;;;17.02;;
36669;SDS011;22662;47.412;9.742;2022-08-19T06:37:21;17.58;;;15.98;;
36669;SDS011;22662;47.412;9.742;2022-08-19T06:39:47;17.83;;;15.93;;
36669;SDS011;22662;47.412;9.742;2022-08-19T06:42:13;16.75;;;15.15;;
36669;SDS011;22662;47.412;9.742;2022-08-19T06:44:42;14.82;;;13.52;;
36669;SDS011;22662;47.412;9.742;2022-08-19T06:47:12;14.25;;;12.93;;
36669;SDS011;22662;47.412;9.742;2022-08-19T06:49:39;14.48;;;13.18;;
36669;SDS011;22662;47.412;9.742;2022-08-19T06:52:05;15.63;;;14.13;;
36669;SDS011;22662;47.412;9.742;2022-08-19T06:54:31;17.38;;;15.77;;
36669;SDS011;22662;47.412;9.742;2022-08-19T06:56:58;18.25;;;16.50;;
36669;SDS011;22662;47.412;9.742;2022-08-19T06:59:27;20.63;;;18.63;;
36669;SDS011;22662;47.412;9.742;2022-08-19T07:01:54;18.85;;;17.05;;
36669;SDS011;22662;47.412;9.742;2022-08-19T07:04:26;20.55;;;18.55;;
36669;SDS011;22662;47.412;9.742;2022-08-19T07:07:01;19.60;;;17.67;;
36669;SDS011;22662;47.412;9.742;2022-08-19T07:09:35;19.83;;;17.83;;
36669;SDS011;22662;47.412;9.742;2022-08-19T07:12:04;19.73;;;17.83;;
36669;SDS011;22662;47.412;9.742;2022-08-19T07:14:31;19.77;;;17.98;;
36669;SDS011;22662;47.412;9.742;2022-08-19T07:17:03;18.67;;;16.98;;
36669;SDS011;22662;47.412;9.742;2022-08-19T07:19:30;19.98;;;18.08;;
36669;SDS011;22662;47.412;9.742;2022-08-19T07:21:56;19.42;;;17.58;;
36669;SDS011;22662;47.412;9.742;2022-08-19T07:24:25;18.75;;;16.95;;
36669;SDS011;22662;47.412;9.742;2022-08-19T07:26:53;21.08;;;19.05;;
36669;SDS011;22662;47.412;9.742;2022-08-19T07:29:22;18.60;;;16.70;;
36669;SDS011;22662;47.412;9.742;2022-08-19T07:31:51;17.02;;;15.40;;
36669;SDS011;22662;47.412;9.742;2022-08-19T07:34:21;16.63;;;15.15;;
36669;SDS011;22662;47.412;9.742;2022-08-19T07:36:48;18.05;;;16.17;;
36669;SDS011;22662;47.412;9.742;2022-08-19T07:39:28;19.95;;;18.02;;
36669;SDS011;22662;47.412;9.742;2022-08-19T07:41:55;18.83;;;17.02;;
36669;SDS011;22662;47.412;9.742;2022-08-19T07:44:23;20.13;;;18.13;;
36669;SDS011;22662;47.412;9.742;2022-08-19T07:46:50;21.10;;;18.90;;
36669;SDS011;22662;47.412;9.742;2022-08-19T07:49:19;21.33;;;19.13;;
36669;SDS011;22662;47.412;9.742;2022-08-19T07:51:46;21.05;;;18.85;;
36669;SDS011;22662;47.412;9.742;2022-08-19T07:54:14;21.27;;;19.08;;
36669;SDS011;22662;47.412;9.742;2022-08-19T07:56:40;20.85;;;18.75;;
36669;SDS011;22662;47.412;9.742;2022-08-19T07:59:06;21.75;;;19.50;;
36669;SDS011;22662;47.412;9.742;2022-08-19T08:01:34;21.80;;;19.45;;
36669;SDS011;22662;47.412;9.742;2022-08-19T08:04:00;22.27;;;19.90;;
36669;SDS011;22662;47.412;9.742;2022-08-19T08:06:45;25.05;;;22.27;;
36669;SDS011;22662;47.412;9.742;2022-08-19T08:09:31;23.73;;;21.23;;
36669;SDS011;22662;47.412;9.742;2022-08-19T08:12:00;28.45;;;24.60;;
36669;SDS011;22662;47.412;9.742;2022-08-19T08:14:39;30.23;;;26.05;;
36669;SDS011;22662;47.412;9.742;2022-08-19T08:17:11;33.63;;;28.65;;
36669;SDS011;22662;47.412;9.742;2022-08-19T08:19:40;33.40;;;28.90;;
36669;SDS011;22662;47.412;9.742;2022-08-19T08:22:07;32.33;;;27.85;;
36669;SDS011;22662;47.412;9.742;2022-08-19T08:24:53;33.78;;;29.38;;
36669;SDS011;22662;47.412;9.742;2022-08-19T08:27:23;33.97;;;29.25;;
36669;SDS011;22662;47.412;9.742;2022-08-19T08:29:49;34.13;;;29.30;;
36669;SDS011;22662;47.412;9.742;2022-08-19T08:32:15;36.80;;;30.33;;
36669;SDS011;22662;47.412;9.742;2022-08-19T08:34:41;38.30;;;32.08;;
36669;SDS011;22662;47.412;9.742;2022-08-19T08:37:08;40.13;;;31.83;;
36669;SDS011;22662;47.412;9.742;2022-08-19T08:39:34;39.05;;;32.72;;
36669;SDS011;22662;47.412;9.742;2022-08-19T08:42:18;36.35;;;30.98;;
36669;SDS011;22662;47.412;9.742;2022-08-19T08:45:02;34.28;;;29.83;;
36669;SDS011;22662;47.412;9.742;2022-08-19T08:47:38;36.10;;;31.17;;
36669;SDS011;22662;47.412;9.742;2022-08-19T08:52:44;34.28;;;30.55;;
36669;SDS011;22662;47.412;9.742;2022-08-19T08:55:14;34.17;;;30.55;;
36669;SDS011;22662;47.412;9.742;2022-08-19T09:00:24;39.03;;;32.38;;
36669;SDS011;22662;47.412;9.742;2022-08-19T09:02:53;37.90;;;32.22;;
36669;SDS011;22662;47.412;9.742;2022-08-19T09:05:20;36.85;;;32.00;;
36669;SDS011;22662;47.412;9.742;2022-08-19T09:10:39;37.22;;;32.92;;
36669;SDS011;22662;47.412;9.742;2022-08-19T09:15:42;32.08;;;28.60;;
36669;SDS011;22662;47.412;9.742;2022-08-19T09:18:49;33.80;;;30.13;;
36669;SDS011;22662;47.412;9.742;2022-08-19T09:21:20;30.70;;;27.40;;
36669;SDS011;22662;47.412;9.742;2022-08-19T09:23:51;34.83;;;30.73;;
36669;SDS011;22662;47.412;9.742;2022-08-19T09:26:17;31.83;;;28.52;;
36669;SDS011;22662;47.412;9.742;2022-08-19T09:28:46;30.17;;;26.98;;
36669;SDS011;22662;47.412;9.742;2022-08-19T09:31:14;30.60;;;27.35;;
36669;SDS011;22662;47.412;9.742;2022-08-19T09:33:44;28.33;;;25.48;;
36669;SDS011;22662;47.412;9.742;2022-08-19T09:36:12;25.10;;;22.63;;
36669;SDS011;22662;47.412;9.742;2022-08-19T09:38:43;24.98;;;22.48;;
36669;SDS011;22662;47.412;9.742;2022-08-19T09:41:13;25.80;;;23.30;;
36669;SDS011;22662;47.412;9.742;2022-08-19T09:43:49;22.88;;;20.67;;
36669;SDS011;22662;47.412;9.742;2022-08-19T09:46:17;27.17;;;24.48;;
36669;SDS011;22662;47.412;9.742;2022-08-19T09:48:46;28.50;;;25.55;;
36669;SDS011;22662;47.412;9.742;2022-08-19T09:51:18;26.73;;;23.98;;
36669;SDS011;22662;47.412;9.742;2022-08-19T09:53:46;28.17;;;25.25;;
36669;SDS011;22662;47.412;9.742;2022-08-19T09:56:16;28.00;;;25.10;;
36669;SDS011;22662;47.412;9.742;2022-08-19T09:58:43;26.80;;;24.10;;
36669;SDS011;22662;47.412;9.742;2022-08-19T10:01:15;25.42;;;22.92;;
36669;SDS011;22662;47.412;9.742;2022-08-19T10:03:42;28.60;;;25.48;;
36669;SDS011;22662;47.412;9.742;2022-08-19T10:06:08;27.98;;;25.13;;
36669;SDS011;22662;47.412;9.742;2022-08-19T10:08:35;25.98;;;23.38;;
36669;SDS011;22662;47.412;9.742;2022-08-19T10:11:02;24.45;;;21.85;;
36669;SDS011;22662;47.412;9.742;2022-08-19T10:13:30;26.98;;;24.27;;
36669;SDS011;22662;47.412;9.742;2022-08-19T10:16:02;27.50;;;24.75;;
36669;SDS011;22662;47.412;9.742;2022-08-19T10:18:30;28.33;;;25.42;;
36669;SDS011;22662;47.412;9.742;2022-08-19T10:21:04;29.60;;;26.50;;
36669;SDS011;22662;47.412;9.742;2022-08-19T10:23:38;30.10;;;26.90;;
36669;SDS011;22662;47.412;9.742;2022-08-19T10:26:06;30.85;;;27.60;;
36669;SDS011;22662;47.412;9.742;2022-08-19T10:28:35;32.38;;;28.90;;
36669;SDS011;22662;47.412;9.742;2022-08-19T10:31:07;29.48;;;26.48;;
36669;SDS011;22662;47.412;9.742;2022-08-19T10:33:35;32.72;;;29.08;;
36669;SDS011;22662;47.412;9.742;2022-08-19T10:36:05;31.25;;;27.98;;
36669;SDS011;22662;47.412;9.742;2022-08-19T10:38:34;30.00;;;26.83;;
36669;SDS011;22662;47.412;9.742;2022-08-19T10:41:11;29.98;;;26.75;;
36669;SDS011;22662;47.412;9.742;2022-08-19T10:43:41;32.83;;;29.23;;
36669;SDS011;22662;47.412;9.742;2022-08-19T10:46:10;29.10;;;26.00;;
36669;SDS011;22662;47.412;9.742;2022-08-19T10:48:41;27.35;;;24.48;;
36669;SDS011;22662;47.412;9.742;2022-08-19T10:51:08;23.08;;;20.70;;
36669;SDS011;22662;47.412;9.742;2022-08-19T10:53:52;22.07;;;19.77;;
36669;SDS011;22662;47.412;9.742;2022-08-19T10:56:18;21.38;;;19.17;;
36669;SDS011;22662;47.412;9.742;2022-08-19T10:59:03;21.75;;;19.45;;
36669;SDS011;22662;47.412;9.742;2022-08-19T11:01:30;20.17;;;18.15;;
36669;SDS011;22662;47.412;9.742;2022-08-19T11:03:58;17.13;;;15.38;;
36669;SDS011;22662;47.412;9.742;2022-08-19T11:06:27;15.18;;;13.55;;
36669;SDS011;22662;47.412;9.742;2022-08-19T11:08:55;12.07;;;10.88;;
36669;SDS011;22662;47.412;9.742;2022-08-19T11:11:21;10.05;;;9.05;;
36669;SDS011;22662;47.412;9.742;2022-08-19T11:13:47;10.88;;;9.77;;
36669;SDS011;22662;47.412;9.742;2022-08-19T11:16:16;10.30;;;9.30;;
36669;SDS011;22662;47.412;9.742;2022-08-19T11:18:47;8.00;;;7.20;;
36669;SDS011;22662;47.412;9.742;2022-08-19T11:21:15;7.35;;;6.47;;
36669;SDS011;22662;47.412;9.742;2022-08-19T11:23:50;6.10;;;5.50;;
36669;SDS011;22662;47.412;9.742;2022-08-19T11:26:17;5.78;;;5.28;;
36669;SDS011;22662;47.412;9.742;2022-08-19T11:28:45;6.32;;;5.47;;
36669;SDS011;22662;47.412;9.742;2022-08-19T11:31:11;7.15;;;5.88;;
36669;SDS011;22662;47.412;9.742;2022-08-19T11:33:38;5.68;;;5.07;;
36669;SDS011;22662;47.412;9.742;2022-08-19T11:36:05;11.25;;;5.40;;
36669;SDS011;22662;47.412;9.742;2022-08-19T11:38:31;6.55;;;3.72;;
36669;SDS011;22662;47.412;9.742;2022-08-19T11:40:57;3.85;;;3.30;;
36669;SDS011;22662;47.412;9.742;2022-08-19T11:43:25;2.80;;;2.33;;
36669;SDS011;22662;47.412;9.742;2022-08-19T11:45:52;2.50;;;2.20;;
36669;SDS011;22662;47.412;9.742;2022-08-19T11:48:19;2.70;;;2.50;;
36669;SDS011;22662;47.412;9.742;2022-08-19T11:50:51;2.35;;;1.98;;
36669;SDS011;22662;47.412;9.742;2022-08-19T11:53:20;2.63;;;2.17;;
36669;SDS011;22662;47.412;9.742;2022-08-19T11:55:46;2.80;;;2.35;;
36669;SDS011;22662;47.412;9.742;2022-08-19T11:58:13;2.58;;;2.15;;
36669;SDS011;22662;47.412;9.742;2022-08-19T12:00:41;2.65;;;2.10;;
36669;SDS011;22662;47.412;9.742;2022-08-19T12:03:07;2.25;;;2.05;;
36669;SDS011;22662;47.412;9.742;2022-08-19T12:05:35;2.63;;;2.40;;
36669;SDS011;22662;47.412;9.742;2022-08-19T12:08:02;1.83;;;1.73;;
36669;SDS011;22662;47.412;9.742;2022-08-19T12:10:28;2.58;;;2.20;;
36669;SDS011;22662;47.412;9.742;2022-08-19T12:12:54;2.45;;;2.25;;
36669;SDS011;22662;47.412;9.742;2022-08-19T12:15:20;2.58;;;2.38;;
36669;SDS011;22662;47.412;9.742;2022-08-19T12:17:46;2.45;;;1.98;;
36669;SDS011;22662;47.412;9.742;2022-08-19T12:20:12;3.30;;;2.60;;
36669;SDS011;22662;47.412;9.742;2022-08-19T12:22:40;2.63;;;2.35;;
36669;SDS011;22662;47.412;9.742;2022-08-19T12:25:07;2.40;;;2.20;;
36669;SDS011;22662;47.412;9.742;2022-08-19T12:27:35;3.22;;;2.80;;
36669;SDS011;22662;47.412;9.742;2022-08-19T12:30:01;2.60;;;2.40;;
36669;SDS011;22662;47.412;9.742;2022-08-19T12:32:29;1.95;;;1.60;;
36669;SDS011;22662;47.412;9.742;2022-08-19T12:34:55;2.22;;;2.00;;
36669;SDS011;22662;47.412;9.742;2022-08-19T12:37:20;2.28;;;1.77;;
36669;SDS011;22662;47.412;9.742;2022-08-19T12:39:46;2.53;;;1.85;;
36669;SDS011;22662;47.412;9.742;2022-08-19T12:42:12;1.85;;;1.73;;
36669;SDS011;22662;47.412;9.742;2022-08-19T12:44:39;2.20;;;2.00;;
36669;SDS011;22662;47.412;9.742;2022-08-19T12:47:07;2.53;;;1.60;;
36669;SDS011;22662;47.412;9.742;2022-08-19T12:49:37;1.50;;;1.40;;
36669;SDS011;22662;47.412;9.742;2022-08-19T12:52:04;1.98;;;1.75;;
36669;SDS011;22662;47.412;9.742;2022-08-19T12:54:30;1.80;;;1.38;;
36669;SDS011;22662;47.412;9.742;2022-08-19T12:56:57;2.30;;;2.10;;
36669;SDS011;22662;47.412;9.742;2022-08-19T12:59:24;1.70;;;1.60;;
36669;SDS011;22662;47.412;9.742;2022-08-19T13:01:50;2.10;;;1.90;;
36669;SDS011;22662;47.412;9.742;2022-08-19T13:04:16;2.00;;;1.75;;
36669;SDS011;22662;47.412;9.742;2022-08-19T13:06:42;4.25;;;1.85;;
36669;SDS011;22662;47.412;9.742;2022-08-19T13:09:08;2.33;;;1.63;;
36669;SDS011;22662;47.412;9.742;2022-08-19T13:11:34;2.53;;;2.00;;
36669;SDS011;22662;47.412;9.742;2022-08-19T13:14:02;3.10;;;2.17;;
36669;SDS011;22662;47.412;9.742;2022-08-19T13:16:29;2.25;;;2.05;;
36669;SDS011;22662;47.412;9.742;2022-08-19T13:18:55;2.97;;;1.92;;
36669;SDS011;22662;47.412;9.742;2022-08-19T13:21:23;2.47;;;1.70;;
36669;SDS011;22662;47.412;9.742;2022-08-19T13:23:51;2.22;;;2.03;;
36669;SDS011;22662;47.412;9.742;2022-08-19T13:26:18;2.83;;;1.73;;
36669;SDS011;22662;47.412;9.742;2022-08-19T13:28:44;3.05;;;1.70;;
36669;SDS011;22662;47.412;9.742;2022-08-19T13:31:30;1.67;;;1.55;;
36669;SDS011;22662;47.412;9.742;2022-08-19T13:34:18;2.50;;;1.90;;
36669;SDS011;22662;47.412;9.742;2022-08-19T13:36:52;2.38;;;2.10;;
36669;SDS011;22662;47.412;9.742;2022-08-19T13:39:18;2.67;;;2.47;;
36669;SDS011;22662;47.412;9.742;2022-08-19T13:41:45;3.67;;;2.83;;
36669;SDS011;22662;47.412;9.742;2022-08-19T13:44:18;3.92;;;2.92;;
36669;SDS011;22662;47.412;9.742;2022-08-19T13:46:45;4.40;;;2.88;;
36669;SDS011;22662;47.412;9.742;2022-08-19T13:49:12;3.80;;;3.33;;
36669;SDS011;22662;47.412;9.742;2022-08-19T13:51:40;2.92;;;2.60;;
36669;SDS011;22662;47.412;9.742;2022-08-19T13:54:09;3.28;;;2.65;;
36669;SDS011;22662;47.412;9.742;2022-08-19T13:56:39;2.80;;;2.60;;
36669;SDS011;22662;47.412;9.742;2022-08-19T13:59:10;3.70;;;3.40;;
36669;SDS011;22662;47.412;9.742;2022-08-19T14:01:36;4.00;;;3.60;;
36669;SDS011;22662;47.412;9.742;2022-08-19T14:04:03;4.72;;;3.95;;
36669;SDS011;22662;47.412;9.742;2022-08-19T14:06:30;4.45;;;4.05;;
36669;SDS011;22662;47.412;9.742;2022-08-19T14:08:57;4.88;;;4.47;;
36669;SDS011;22662;47.412;9.742;2022-08-19T14:11:22;5.30;;;4.90;;
36669;SDS011;22662;47.412;9.742;2022-08-19T14:13:49;4.70;;;4.30;;
36669;SDS011;22662;47.412;9.742;2022-08-19T14:16:15;4.50;;;4.10;;
36669;SDS011;22662;47.412;9.742;2022-08-19T14:18:42;4.38;;;3.97;;
36669;SDS011;22662;47.412;9.742;2022-08-19T14:21:13;4.63;;;4.22;;
36669;SDS011;22662;47.412;9.742;2022-08-19T14:23:45;4.22;;;3.83;;
36669;SDS011;22662;47.412;9.742;2022-08-19T14:26:12;4.55;;;4.15;;
36669;SDS011;22662;47.412;9.742;2022-08-19T14:28:40;5.10;;;4.70;;
36669;SDS011;22662;47.412;9.742;2022-08-19T14:31:07;6.28;;;5.78;;
36669;SDS011;22662;47.412;9.742;2022-08-19T14:33:34;5.88;;;5.38;;
36669;SDS011;22662;47.412;9.742;2022-08-19T14:35:59;5.80;;;5.22;;
36669;SDS011;22662;47.412;9.742;2022-08-19T14:38:25;5.57;;;5.07;;
36669;SDS011;22662;47.412;9.742;2022-08-19T14:40:51;6.38;;;5.78;;
36669;SDS011;22662;47.412;9.742;2022-08-19T14:43:17;6.82;;;6.22;;
36669;SDS011;22662;47.412;9.742;2022-08-19T14:45:43;6.85;;;6.25;;
36669;SDS011;22662;47.412;9.742;2022-08-19T14:48:09;7.00;;;6.40;;
36669;SDS011;22662;47.412;9.742;2022-08-19T14:50:35;7.38;;;6.78;;
36669;SDS011;22662;47.412;9.742;2022-08-19T14:53:06;7.78;;;7.10;;
36669;SDS011;22662;47.412;9.742;2022-08-19T14:55:33;7.88;;;7.18;;